sensor_id;sensor_type;location;lat;lon;timestamp;P1;durP1;ratioP1;P2;durP2;ratioP2
57331;SDS011;43164;50.908;18.092;2023-07-16T00:00:29;5.80;;;3.20;;
57331;SDS011;43164;50.908;18.092;2023-07-16T00:02:59;8.30;;;3.80;;
57331;SDS011;43164;50.908;18.092;2023-07-16T00:05:36;7.30;;;3.40;;
57331;SDS011;43164;50.908;18.092;2023-07-16T00:08:05;9.70;;;3.90;;
57331;SDS011;43164;50.908;18.092;2023-07-16T00:10:34;9.00;;;3.70;;
57331;SDS011;43164;50.908;18.092;2023-07-16T00:13:09;8.60;;;4.10;;
57331;SDS011;43164;50.908;18.092;2023-07-16T00:15:48;7.40;;;3.80;;
57331;SDS011;43164;50.908;18.092;2023-07-16T00:21:30;9.60;;;4.00;;
57331;SDS011;43164;50.908;18.092;2023-07-16T00:24:13;8.20;;;4.10;;
57331;SDS011;43164;50.908;18.092;2023-07-16T00:26:46;7.90;;;4.10;;
57331;SDS011;43164;50.908;18.092;2023-07-16T00:29:19;8.10;;;4.00;;
57331;SDS011;43164;50.908;18.092;2023-07-16T00:31:56;7.40;;;4.30;;
57331;SDS011;43164;50.908;18.092;2023-07-16T00:34:40;9.70;;;4.00;;
57331;SDS011;43164;50.908;18.092;2023-07-16T00:37:18;8.10;;;4.10;;
57331;SDS011;43164;50.908;18.092;2023-07-16T00:39:53;9.90;;;3.80;;
57331;SDS011;43164;50.908;18.092;2023-07-16T00:42:20;11.50;;;4.10;;
57331;SDS011;43164;50.908;18.092;2023-07-16T00:44:56;9.70;;;3.70;;
57331;SDS011;43164;50.908;18.092;2023-07-16T00:47:25;8.00;;;3.50;;
57331;SDS011;43164;50.908;18.092;2023-07-16T00:50:07;7.70;;;3.80;;
57331;SDS011;43164;50.908;18.092;2023-07-16T00:52:39;6.90;;;4.10;;
57331;SDS011;43164;50.908;18.092;2023-07-16T00:55:30;9.60;;;4.30;;
57331;SDS011;43164;50.908;18.092;2023-07-16T00:58:04;7.30;;;3.70;;
57331;SDS011;43164;50.908;18.092;2023-07-16T01:03:35;7.80;;;3.50;;
57331;SDS011;43164;50.908;18.092;2023-07-16T01:06:25;7.10;;;3.90;;
57331;SDS011;43164;50.908;18.092;2023-07-16T01:09:26;7.90;;;4.00;;
57331;SDS011;43164;50.908;18.092;2023-07-16T01:14:40;9.30;;;4.00;;
57331;SDS011;43164;50.908;18.092;2023-07-16T01:17:09;8.80;;;4.10;;
57331;SDS011;43164;50.908;18.092;2023-07-16T01:19:37;7.80;;;3.80;;
57331;SDS011;43164;50.908;18.092;2023-07-16T01:30:33;7.90;;;3.80;;
57331;SDS011;43164;50.908;18.092;2023-07-16T01:33:03;7.10;;;3.80;;
57331;SDS011;43164;50.908;18.092;2023-07-16T01:35:31;8.20;;;4.30;;
57331;SDS011;43164;50.908;18.092;2023-07-16T01:40:56;7.60;;;4.20;;
57331;SDS011;43164;50.908;18.092;2023-07-16T01:43:28;8.00;;;4.30;;
57331;SDS011;43164;50.908;18.092;2023-07-16T01:45:59;7.10;;;4.10;;
57331;SDS011;43164;50.908;18.092;2023-07-16T01:48:35;10.20;;;4.30;;
57331;SDS011;43164;50.908;18.092;2023-07-16T01:51:06;8.60;;;4.20;;
57331;SDS011;43164;50.908;18.092;2023-07-16T01:53:43;9.80;;;4.40;;
57331;SDS011;43164;50.908;18.092;2023-07-16T01:56:12;9.70;;;4.30;;
57331;SDS011;43164;50.908;18.092;2023-07-16T02:05:32;7.80;;;4.30;;
57331;SDS011;43164;50.908;18.092;2023-07-16T02:08:10;9.30;;;4.40;;
57331;SDS011;43164;50.908;18.092;2023-07-16T02:10:48;8.00;;;4.60;;
57331;SDS011;43164;50.908;18.092;2023-07-16T02:13:18;12.70;;;4.90;;
57331;SDS011;43164;50.908;18.092;2023-07-16T02:15:53;10.70;;;4.60;;
57331;SDS011;43164;50.908;18.092;2023-07-16T02:18:23;7.50;;;4.30;;
57331;SDS011;43164;50.908;18.092;2023-07-16T02:20:51;7.50;;;4.80;;
57331;SDS011;43164;50.908;18.092;2023-07-16T02:23:20;8.50;;;5.20;;
57331;SDS011;43164;50.908;18.092;2023-07-16T02:25:56;8.60;;;5.00;;
57331;SDS011;43164;50.908;18.092;2023-07-16T02:28:24;8.40;;;4.90;;
57331;SDS011;43164;50.908;18.092;2023-07-16T02:30:58;8.40;;;4.80;;
57331;SDS011;43164;50.908;18.092;2023-07-16T02:33:28;8.90;;;5.00;;
57331;SDS011;43164;50.908;18.092;2023-07-16T02:36:01;11.80;;;5.10;;
57331;SDS011;43164;50.908;18.092;2023-07-16T02:38:31;12.60;;;5.10;;
57331;SDS011;43164;50.908;18.092;2023-07-16T02:41:04;9.00;;;4.60;;
57331;SDS011;43164;50.908;18.092;2023-07-16T02:43:33;13.00;;;5.40;;
57331;SDS011;43164;50.908;18.092;2023-07-16T02:46:07;9.00;;;5.00;;
57331;SDS011;43164;50.908;18.092;2023-07-16T02:48:38;12.60;;;5.50;;
57331;SDS011;43164;50.908;18.092;2023-07-16T02:51:20;10.10;;;5.40;;
57331;SDS011;43164;50.908;18.092;2023-07-16T02:53:50;9.10;;;5.00;;
57331;SDS011;43164;50.908;18.092;2023-07-16T02:56:29;9.10;;;5.60;;
57331;SDS011;43164;50.908;18.092;2023-07-16T02:58:58;10.90;;;5.20;;
57331;SDS011;43164;50.908;18.092;2023-07-16T03:01:33;10.30;;;5.10;;
57331;SDS011;43164;50.908;18.092;2023-07-16T03:04:02;12.20;;;5.40;;
57331;SDS011;43164;50.908;18.092;2023-07-16T03:06:40;9.30;;;5.20;;
57331;SDS011;43164;50.908;18.092;2023-07-16T03:09:12;12.80;;;5.70;;
57331;SDS011;43164;50.908;18.092;2023-07-16T03:11:50;8.90;;;5.40;;
57331;SDS011;43164;50.908;18.092;2023-07-16T03:14:18;11.80;;;5.20;;
57331;SDS011;43164;50.908;18.092;2023-07-16T03:16:54;11.90;;;5.50;;
57331;SDS011;43164;50.908;18.092;2023-07-16T03:19:21;8.40;;;5.20;;
57331;SDS011;43164;50.908;18.092;2023-07-16T03:22:11;9.50;;;5.80;;
57331;SDS011;43164;50.908;18.092;2023-07-16T03:24:41;8.80;;;5.00;;
57331;SDS011;43164;50.908;18.092;2023-07-16T03:33:18;7.40;;;4.00;;
57331;SDS011;43164;50.908;18.092;2023-07-16T03:39:01;7.10;;;3.90;;
57331;SDS011;43164;50.908;18.092;2023-07-16T03:45:11;6.80;;;3.90;;
57331;SDS011;43164;50.908;18.092;2023-07-16T03:47:49;7.70;;;3.90;;
57331;SDS011;43164;50.908;18.092;2023-07-16T03:50:24;5.90;;;3.50;;
57331;SDS011;43164;50.908;18.092;2023-07-16T03:52:53;6.50;;;3.80;;
57331;SDS011;43164;50.908;18.092;2023-07-16T03:55:24;6.50;;;3.60;;
57331;SDS011;43164;50.908;18.092;2023-07-16T03:57:59;7.00;;;3.60;;
57331;SDS011;43164;50.908;18.092;2023-07-16T04:00:27;7.00;;;3.50;;
57331;SDS011;43164;50.908;18.092;2023-07-16T04:05:30;5.90;;;3.30;;
57331;SDS011;43164;50.908;18.092;2023-07-16T04:08:03;6.60;;;3.60;;
57331;SDS011;43164;50.908;18.092;2023-07-16T04:10:33;6.40;;;3.30;;
57331;SDS011;43164;50.908;18.092;2023-07-16T04:13:08;6.90;;;2.90;;
57331;SDS011;43164;50.908;18.092;2023-07-16T04:15:45;5.90;;;3.10;;
57331;SDS011;43164;50.908;18.092;2023-07-16T04:18:17;6.70;;;3.30;;
57331;SDS011;43164;50.908;18.092;2023-07-16T04:20:47;6.80;;;3.30;;
57331;SDS011;43164;50.908;18.092;2023-07-16T04:23:22;6.60;;;2.80;;
57331;SDS011;43164;50.908;18.092;2023-07-16T04:25:53;4.80;;;2.90;;
57331;SDS011;43164;50.908;18.092;2023-07-16T04:28:31;6.60;;;3.00;;
57331;SDS011;43164;50.908;18.092;2023-07-16T04:31:02;5.90;;;2.80;;
57331;SDS011;43164;50.908;18.092;2023-07-16T04:33:32;5.00;;;2.80;;
57331;SDS011;43164;50.908;18.092;2023-07-16T04:38:56;8.00;;;3.20;;
57331;SDS011;43164;50.908;18.092;2023-07-16T04:41:31;7.30;;;2.90;;
57331;SDS011;43164;50.908;18.092;2023-07-16T04:44:00;7.10;;;3.20;;
57331;SDS011;43164;50.908;18.092;2023-07-16T04:46:35;5.90;;;2.80;;
57331;SDS011;43164;50.908;18.092;2023-07-16T04:49:04;5.50;;;3.30;;
57331;SDS011;43164;50.908;18.092;2023-07-16T04:51:39;6.70;;;3.00;;
57331;SDS011;43164;50.908;18.092;2023-07-16T04:54:08;5.80;;;3.10;;
57331;SDS011;43164;50.908;18.092;2023-07-16T04:56:37;4.60;;;2.90;;
57331;SDS011;43164;50.908;18.092;2023-07-16T04:59:07;5.50;;;2.80;;
57331;SDS011;43164;50.908;18.092;2023-07-16T05:01:43;5.50;;;2.50;;
57331;SDS011;43164;50.908;18.092;2023-07-16T05:06:48;9.00;;;3.00;;
57331;SDS011;43164;50.908;18.092;2023-07-16T05:09:17;4.90;;;2.90;;
57331;SDS011;43164;50.908;18.092;2023-07-16T05:11:50;4.50;;;2.60;;
57331;SDS011;43164;50.908;18.092;2023-07-16T05:14:19;5.90;;;2.70;;
57331;SDS011;43164;50.908;18.092;2023-07-16T05:16:55;8.10;;;3.40;;
57331;SDS011;43164;50.908;18.092;2023-07-16T05:19:24;8.60;;;3.20;;
57331;SDS011;43164;50.908;18.092;2023-07-16T05:21:58;5.60;;;3.10;;
57331;SDS011;43164;50.908;18.092;2023-07-16T05:24:25;5.30;;;3.00;;
57331;SDS011;43164;50.908;18.092;2023-07-16T05:27:00;5.80;;;2.90;;
57331;SDS011;43164;50.908;18.092;2023-07-16T05:29:28;5.80;;;3.00;;
57331;SDS011;43164;50.908;18.092;2023-07-16T05:31:57;7.70;;;3.10;;
57331;SDS011;43164;50.908;18.092;2023-07-16T05:34:28;7.30;;;3.40;;
57331;SDS011;43164;50.908;18.092;2023-07-16T05:37:02;7.00;;;2.90;;
57331;SDS011;43164;50.908;18.092;2023-07-16T05:39:31;6.80;;;3.40;;
57331;SDS011;43164;50.908;18.092;2023-07-16T05:42:01;5.80;;;2.90;;
57331;SDS011;43164;50.908;18.092;2023-07-16T05:44:30;5.80;;;3.00;;
57331;SDS011;43164;50.908;18.092;2023-07-16T05:47:10;8.10;;;3.00;;
57331;SDS011;43164;50.908;18.092;2023-07-16T05:49:42;7.20;;;2.70;;
57331;SDS011;43164;50.908;18.092;2023-07-16T05:52:17;7.50;;;3.30;;
57331;SDS011;43164;50.908;18.092;2023-07-16T05:55:06;6.20;;;3.20;;
57331;SDS011;43164;50.908;18.092;2023-07-16T05:57:43;6.50;;;2.90;;
57331;SDS011;43164;50.908;18.092;2023-07-16T06:00:29;6.30;;;2.90;;
57331;SDS011;43164;50.908;18.092;2023-07-16T06:03:00;6.80;;;2.70;;
57331;SDS011;43164;50.908;18.092;2023-07-16T06:05:52;7.50;;;3.00;;
57331;SDS011;43164;50.908;18.092;2023-07-16T06:08:38;7.50;;;2.90;;
57331;SDS011;43164;50.908;18.092;2023-07-16T06:11:15;7.80;;;2.40;;
57331;SDS011;43164;50.908;18.092;2023-07-16T06:13:47;7.40;;;2.40;;
57331;SDS011;43164;50.908;18.092;2023-07-16T06:16:16;4.60;;;2.20;;
57331;SDS011;43164;50.908;18.092;2023-07-16T06:18:50;4.80;;;2.20;;
57331;SDS011;43164;50.908;18.092;2023-07-16T06:21:20;5.60;;;2.20;;
57331;SDS011;43164;50.908;18.092;2023-07-16T06:23:48;4.40;;;2.50;;
57331;SDS011;43164;50.908;18.092;2023-07-16T06:26:17;5.00;;;1.90;;
57331;SDS011;43164;50.908;18.092;2023-07-16T06:28:46;6.70;;;2.00;;
57331;SDS011;43164;50.908;18.092;2023-07-16T06:31:17;6.80;;;1.60;;
57331;SDS011;43164;50.908;18.092;2023-07-16T06:33:52;9.80;;;2.00;;
57331;SDS011;43164;50.908;18.092;2023-07-16T06:36:37;4.80;;;1.50;;
57331;SDS011;43164;50.908;18.092;2023-07-16T06:39:05;6.60;;;1.80;;
57331;SDS011;43164;50.908;18.092;2023-07-16T06:41:35;4.10;;;2.00;;
57331;SDS011;43164;50.908;18.092;2023-07-16T06:44:04;4.40;;;1.50;;
57331;SDS011;43164;50.908;18.092;2023-07-16T06:46:33;3.90;;;1.40;;
57331;SDS011;43164;50.908;18.092;2023-07-16T06:49:00;4.10;;;1.30;;
57331;SDS011;43164;50.908;18.092;2023-07-16T06:51:28;4.50;;;1.10;;
57331;SDS011;43164;50.908;18.092;2023-07-16T06:53:58;4.10;;;1.20;;
57331;SDS011;43164;50.908;18.092;2023-07-16T06:56:27;3.80;;;1.10;;
57331;SDS011;43164;50.908;18.092;2023-07-16T06:58:54;3.90;;;1.10;;
57331;SDS011;43164;50.908;18.092;2023-07-16T07:01:23;4.60;;;0.90;;
57331;SDS011;43164;50.908;18.092;2023-07-16T07:03:50;3.60;;;1.00;;
57331;SDS011;43164;50.908;18.092;2023-07-16T07:06:19;2.30;;;0.70;;
57331;SDS011;43164;50.908;18.092;2023-07-16T07:08:48;4.50;;;1.00;;
57331;SDS011;43164;50.908;18.092;2023-07-16T07:11:16;3.50;;;0.80;;
57331;SDS011;43164;50.908;18.092;2023-07-16T07:13:46;2.80;;;0.90;;
57331;SDS011;43164;50.908;18.092;2023-07-16T07:16:15;5.60;;;1.00;;
57331;SDS011;43164;50.908;18.092;2023-07-16T07:18:49;8.70;;;0.80;;
57331;SDS011;43164;50.908;18.092;2023-07-16T07:21:19;4.10;;;0.80;;
57331;SDS011;43164;50.908;18.092;2023-07-16T07:23:47;4.20;;;0.90;;
57331;SDS011;43164;50.908;18.092;2023-07-16T07:26:16;4.20;;;1.10;;
57331;SDS011;43164;50.908;18.092;2023-07-16T07:28:45;3.60;;;0.90;;
57331;SDS011;43164;50.908;18.092;2023-07-16T07:31:14;2.40;;;0.90;;
57331;SDS011;43164;50.908;18.092;2023-07-16T07:33:45;3.40;;;0.90;;
57331;SDS011;43164;50.908;18.092;2023-07-16T07:36:14;4.20;;;0.90;;
57331;SDS011;43164;50.908;18.092;2023-07-16T07:38:45;3.20;;;0.80;;
57331;SDS011;43164;50.908;18.092;2023-07-16T07:41:13;4.40;;;1.00;;
57331;SDS011;43164;50.908;18.092;2023-07-16T07:43:43;4.00;;;0.90;;
57331;SDS011;43164;50.908;18.092;2023-07-16T07:46:13;4.90;;;0.90;;
57331;SDS011;43164;50.908;18.092;2023-07-16T07:48:49;3.00;;;0.90;;
57331;SDS011;43164;50.908;18.092;2023-07-16T07:51:18;5.40;;;0.90;;
57331;SDS011;43164;50.908;18.092;2023-07-16T07:53:54;3.30;;;0.80;;
57331;SDS011;43164;50.908;18.092;2023-07-16T07:56:23;1.90;;;0.80;;
57331;SDS011;43164;50.908;18.092;2023-07-16T07:58:51;3.60;;;0.90;;
57331;SDS011;43164;50.908;18.092;2023-07-16T08:01:21;3.50;;;0.90;;
57331;SDS011;43164;50.908;18.092;2023-07-16T08:03:57;4.00;;;0.90;;
57331;SDS011;43164;50.908;18.092;2023-07-16T08:06:25;5.40;;;1.00;;
57331;SDS011;43164;50.908;18.092;2023-07-16T08:08:59;3.10;;;0.80;;
57331;SDS011;43164;50.908;18.092;2023-07-16T08:11:28;2.90;;;1.00;;
57331;SDS011;43164;50.908;18.092;2023-07-16T08:14:03;14.80;;;1.10;;
57331;SDS011;43164;50.908;18.092;2023-07-16T08:16:33;5.50;;;1.10;;
57331;SDS011;43164;50.908;18.092;2023-07-16T08:19:26;5.90;;;1.10;;
57331;SDS011;43164;50.908;18.092;2023-07-16T08:21:54;4.30;;;1.10;;
57331;SDS011;43164;50.908;18.092;2023-07-16T08:24:27;6.60;;;1.00;;
57331;SDS011;43164;50.908;18.092;2023-07-16T08:26:55;6.90;;;1.20;;
57331;SDS011;43164;50.908;18.092;2023-07-16T08:29:25;5.80;;;1.60;;
57331;SDS011;43164;50.908;18.092;2023-07-16T08:31:55;3.50;;;1.20;;
57331;SDS011;43164;50.908;18.092;2023-07-16T08:34:31;3.00;;;1.00;;
57331;SDS011;43164;50.908;18.092;2023-07-16T08:37:00;3.40;;;0.90;;
57331;SDS011;43164;50.908;18.092;2023-07-16T08:39:30;5.70;;;0.90;;
57331;SDS011;43164;50.908;18.092;2023-07-16T08:42:01;2.50;;;0.80;;
57331;SDS011;43164;50.908;18.092;2023-07-16T08:44:40;2.70;;;0.90;;
57331;SDS011;43164;50.908;18.092;2023-07-16T08:47:10;2.60;;;0.90;;
57331;SDS011;43164;50.908;18.092;2023-07-16T08:49:53;3.50;;;1.00;;
57331;SDS011;43164;50.908;18.092;2023-07-16T08:52:24;6.20;;;1.10;;
57331;SDS011;43164;50.908;18.092;2023-07-16T08:54:55;2.70;;;0.70;;
57331;SDS011;43164;50.908;18.092;2023-07-16T08:57:23;3.50;;;0.80;;
57331;SDS011;43164;50.908;18.092;2023-07-16T08:59:51;7.80;;;1.30;;
57331;SDS011;43164;50.908;18.092;2023-07-16T09:02:19;3.30;;;1.10;;
57331;SDS011;43164;50.908;18.092;2023-07-16T09:04:48;4.70;;;1.00;;
57331;SDS011;43164;50.908;18.092;2023-07-16T09:07:28;5.10;;;1.10;;
57331;SDS011;43164;50.908;18.092;2023-07-16T09:10:03;4.00;;;1.50;;
57331;SDS011;43164;50.908;18.092;2023-07-16T09:12:31;4.10;;;0.90;;
57331;SDS011;43164;50.908;18.092;2023-07-16T09:15:01;2.80;;;0.90;;
57331;SDS011;43164;50.908;18.092;2023-07-16T09:17:30;3.60;;;0.80;;
57331;SDS011;43164;50.908;18.092;2023-07-16T09:20:03;2.10;;;0.80;;
57331;SDS011;43164;50.908;18.092;2023-07-16T09:22:36;3.40;;;0.90;;
57331;SDS011;43164;50.908;18.092;2023-07-16T09:25:06;4.30;;;0.90;;
57331;SDS011;43164;50.908;18.092;2023-07-16T09:27:35;4.10;;;1.00;;
57331;SDS011;43164;50.908;18.092;2023-07-16T09:30:05;3.60;;;0.90;;
57331;SDS011;43164;50.908;18.092;2023-07-16T09:35:10;5.00;;;0.80;;
57331;SDS011;43164;50.908;18.092;2023-07-16T09:37:40;4.10;;;0.90;;
57331;SDS011;43164;50.908;18.092;2023-07-16T09:40:14;5.40;;;0.70;;
57331;SDS011;43164;50.908;18.092;2023-07-16T09:42:44;5.20;;;0.90;;
57331;SDS011;43164;50.908;18.092;2023-07-16T09:45:17;4.30;;;0.80;;
57331;SDS011;43164;50.908;18.092;2023-07-16T09:47:50;2.20;;;0.70;;
57331;SDS011;43164;50.908;18.092;2023-07-16T09:50:24;3.10;;;0.80;;
57331;SDS011;43164;50.908;18.092;2023-07-16T09:53:06;2.50;;;0.70;;
57331;SDS011;43164;50.908;18.092;2023-07-16T09:55:37;2.50;;;0.70;;
57331;SDS011;43164;50.908;18.092;2023-07-16T09:58:08;3.30;;;0.80;;
57331;SDS011;43164;50.908;18.092;2023-07-16T10:00:45;2.30;;;0.80;;
57331;SDS011;43164;50.908;18.092;2023-07-16T10:03:20;1.60;;;0.50;;
57331;SDS011;43164;50.908;18.092;2023-07-16T10:05:51;2.60;;;0.70;;
57331;SDS011;43164;50.908;18.092;2023-07-16T10:08:32;2.40;;;0.70;;
57331;SDS011;43164;50.908;18.092;2023-07-16T10:11:19;1.30;;;0.60;;
57331;SDS011;43164;50.908;18.092;2023-07-16T10:13:53;1.80;;;0.50;;
57331;SDS011;43164;50.908;18.092;2023-07-16T10:16:35;5.00;;;0.70;;
57331;SDS011;43164;50.908;18.092;2023-07-16T10:19:08;4.20;;;0.70;;
57331;SDS011;43164;50.908;18.092;2023-07-16T10:21:44;4.50;;;0.90;;
57331;SDS011;43164;50.908;18.092;2023-07-16T10:24:20;2.60;;;0.80;;
57331;SDS011;43164;50.908;18.092;2023-07-16T10:26:54;1.70;;;0.60;;
57331;SDS011;43164;50.908;18.092;2023-07-16T10:29:42;3.50;;;0.80;;
57331;SDS011;43164;50.908;18.092;2023-07-16T10:32:10;2.30;;;0.80;;
57331;SDS011;43164;50.908;18.092;2023-07-16T10:34:44;3.20;;;0.80;;
57331;SDS011;43164;50.908;18.092;2023-07-16T10:37:21;2.30;;;0.70;;
57331;SDS011;43164;50.908;18.092;2023-07-16T10:40:14;3.60;;;0.80;;
57331;SDS011;43164;50.908;18.092;2023-07-16T10:42:54;2.80;;;0.80;;
57331;SDS011;43164;50.908;18.092;2023-07-16T10:45:25;2.30;;;0.60;;
57331;SDS011;43164;50.908;18.092;2023-07-16T10:48:11;1.90;;;0.60;;
57331;SDS011;43164;50.908;18.092;2023-07-16T10:50:52;2.80;;;0.60;;
57331;SDS011;43164;50.908;18.092;2023-07-16T10:53:31;1.90;;;0.70;;
57331;SDS011;43164;50.908;18.092;2023-07-16T10:56:19;2.60;;;0.60;;
57331;SDS011;43164;50.908;18.092;2023-07-16T10:58:53;2.50;;;0.60;;
57331;SDS011;43164;50.908;18.092;2023-07-16T11:01:28;2.70;;;0.70;;
57331;SDS011;43164;50.908;18.092;2023-07-16T11:04:12;2.40;;;0.60;;
57331;SDS011;43164;50.908;18.092;2023-07-16T11:06:42;1.80;;;0.60;;
57331;SDS011;43164;50.908;18.092;2023-07-16T11:09:17;1.60;;;0.70;;
57331;SDS011;43164;50.908;18.092;2023-07-16T11:15:32;2.30;;;0.70;;
57331;SDS011;43164;50.908;18.092;2023-07-16T11:18:07;2.60;;;0.70;;
57331;SDS011;43164;50.908;18.092;2023-07-16T11:20:50;3.10;;;0.70;;
57331;SDS011;43164;50.908;18.092;2023-07-16T11:23:35;1.90;;;0.70;;
57331;SDS011;43164;50.908;18.092;2023-07-16T11:26:05;4.60;;;0.70;;
57331;SDS011;43164;50.908;18.092;2023-07-16T11:28:43;2.30;;;0.60;;
57331;SDS011;43164;50.908;18.092;2023-07-16T11:31:21;2.10;;;0.70;;
57331;SDS011;43164;50.908;18.092;2023-07-16T11:34:15;6.60;;;0.90;;
57331;SDS011;43164;50.908;18.092;2023-07-16T11:36:45;1.90;;;0.70;;
57331;SDS011;43164;50.908;18.092;2023-07-16T11:39:27;3.00;;;0.70;;
57331;SDS011;43164;50.908;18.092;2023-07-16T11:42:01;2.70;;;0.60;;
57331;SDS011;43164;50.908;18.092;2023-07-16T11:44:36;1.10;;;0.50;;
57331;SDS011;43164;50.908;18.092;2023-07-16T11:47:08;1.20;;;0.60;;
57331;SDS011;43164;50.908;18.092;2023-07-16T11:49:42;4.20;;;0.70;;
57331;SDS011;43164;50.908;18.092;2023-07-16T11:52:25;4.00;;;0.80;;
57331;SDS011;43164;50.908;18.092;2023-07-16T11:55:02;2.10;;;0.80;;
57331;SDS011;43164;50.908;18.092;2023-07-16T11:57:34;1.60;;;0.70;;
57331;SDS011;43164;50.908;18.092;2023-07-16T12:00:09;3.20;;;0.60;;
57331;SDS011;43164;50.908;18.092;2023-07-16T12:02:40;4.80;;;0.60;;
57331;SDS011;43164;50.908;18.092;2023-07-16T12:05:12;2.20;;;0.60;;
57331;SDS011;43164;50.908;18.092;2023-07-16T12:07:41;2.60;;;0.60;;
57331;SDS011;43164;50.908;18.092;2023-07-16T12:10:11;1.80;;;0.70;;
57331;SDS011;43164;50.908;18.092;2023-07-16T12:12:44;1.70;;;0.80;;
57331;SDS011;43164;50.908;18.092;2023-07-16T12:15:12;2.80;;;0.60;;
57331;SDS011;43164;50.908;18.092;2023-07-16T12:17:41;1.80;;;0.70;;
57331;SDS011;43164;50.908;18.092;2023-07-16T12:20:12;1.90;;;0.70;;
57331;SDS011;43164;50.908;18.092;2023-07-16T12:22:42;3.30;;;0.80;;
57331;SDS011;43164;50.908;18.092;2023-07-16T12:25:12;1.80;;;0.90;;
57331;SDS011;43164;50.908;18.092;2023-07-16T12:27:41;4.50;;;0.90;;
57331;SDS011;43164;50.908;18.092;2023-07-16T12:30:09;2.70;;;0.80;;
57331;SDS011;43164;50.908;18.092;2023-07-16T12:32:44;1.60;;;0.70;;
57331;SDS011;43164;50.908;18.092;2023-07-16T12:35:26;2.80;;;0.90;;
57331;SDS011;43164;50.908;18.092;2023-07-16T12:38:05;2.00;;;0.80;;
57331;SDS011;43164;50.908;18.092;2023-07-16T12:40:43;5.10;;;0.70;;
57331;SDS011;43164;50.908;18.092;2023-07-16T12:43:10;4.00;;;0.70;;
57331;SDS011;43164;50.908;18.092;2023-07-16T12:45:41;4.00;;;0.80;;
57331;SDS011;43164;50.908;18.092;2023-07-16T12:48:11;2.20;;;1.00;;
57331;SDS011;43164;50.908;18.092;2023-07-16T12:50:40;3.50;;;0.80;;
57331;SDS011;43164;50.908;18.092;2023-07-16T12:56:32;3.20;;;1.00;;
57331;SDS011;43164;50.908;18.092;2023-07-16T13:01:34;4.20;;;0.90;;
57331;SDS011;43164;50.908;18.092;2023-07-16T13:04:12;1.60;;;0.60;;
57331;SDS011;43164;50.908;18.092;2023-07-16T13:06:50;3.00;;;0.80;;
57331;SDS011;43164;50.908;18.092;2023-07-16T13:09:21;2.70;;;0.80;;
57331;SDS011;43164;50.908;18.092;2023-07-16T13:11:52;2.20;;;0.80;;
57331;SDS011;43164;50.908;18.092;2023-07-16T13:14:25;3.70;;;0.90;;
57331;SDS011;43164;50.908;18.092;2023-07-16T13:16:54;4.10;;;0.70;;
57331;SDS011;43164;50.908;18.092;2023-07-16T13:19:30;4.10;;;0.70;;
57331;SDS011;43164;50.908;18.092;2023-07-16T13:21:59;3.30;;;0.90;;
57331;SDS011;43164;50.908;18.092;2023-07-16T13:24:35;1.70;;;0.70;;
57331;SDS011;43164;50.908;18.092;2023-07-16T13:27:03;3.40;;;0.80;;
57331;SDS011;43164;50.908;18.092;2023-07-16T13:29:43;2.80;;;0.90;;
57331;SDS011;43164;50.908;18.092;2023-07-16T13:32:15;2.00;;;0.80;;
57331;SDS011;43164;50.908;18.092;2023-07-16T13:34:53;2.80;;;0.70;;
57331;SDS011;43164;50.908;18.092;2023-07-16T13:37:23;2.50;;;0.80;;
57331;SDS011;43164;50.908;18.092;2023-07-16T13:40:00;1.90;;;0.70;;
57331;SDS011;43164;50.908;18.092;2023-07-16T13:42:29;4.40;;;0.60;;
57331;SDS011;43164;50.908;18.092;2023-07-16T13:45:05;1.80;;;0.60;;
57331;SDS011;43164;50.908;18.092;2023-07-16T13:47:36;2.20;;;0.70;;
57331;SDS011;43164;50.908;18.092;2023-07-16T13:50:17;2.50;;;0.70;;
57331;SDS011;43164;50.908;18.092;2023-07-16T13:52:45;3.70;;;0.80;;
57331;SDS011;43164;50.908;18.092;2023-07-16T13:55:14;2.90;;;0.90;;
57331;SDS011;43164;50.908;18.092;2023-07-16T14:04:47;6.20;;;1.20;;
57331;SDS011;43164;50.908;18.092;2023-07-16T14:07:16;2.40;;;0.90;;
57331;SDS011;43164;50.908;18.092;2023-07-16T14:09:47;4.60;;;0.90;;
57331;SDS011;43164;50.908;18.092;2023-07-16T14:12:17;2.10;;;0.90;;
57331;SDS011;43164;50.908;18.092;2023-07-16T14:14:53;3.80;;;1.00;;
57331;SDS011;43164;50.908;18.092;2023-07-16T14:17:23;3.70;;;0.90;;
57331;SDS011;43164;50.908;18.092;2023-07-16T14:19:52;2.60;;;0.90;;
57331;SDS011;43164;50.908;18.092;2023-07-16T14:22:21;3.70;;;0.90;;
57331;SDS011;43164;50.908;18.092;2023-07-16T14:24:59;2.30;;;0.90;;
57331;SDS011;43164;50.908;18.092;2023-07-16T14:27:27;4.20;;;0.80;;
57331;SDS011;43164;50.908;18.092;2023-07-16T14:30:15;3.70;;;1.00;;
57331;SDS011;43164;50.908;18.092;2023-07-16T14:32:44;6.00;;;1.10;;
57331;SDS011;43164;50.908;18.092;2023-07-16T14:35:33;2.70;;;1.00;;
57331;SDS011;43164;50.908;18.092;2023-07-16T14:38:03;1.70;;;0.80;;
57331;SDS011;43164;50.908;18.092;2023-07-16T14:40:36;4.40;;;1.00;;
57331;SDS011;43164;50.908;18.092;2023-07-16T14:43:08;2.10;;;0.90;;
57331;SDS011;43164;50.908;18.092;2023-07-16T14:45:38;2.30;;;1.00;;
57331;SDS011;43164;50.908;18.092;2023-07-16T14:48:07;2.70;;;0.90;;
57331;SDS011;43164;50.908;18.092;2023-07-16T14:50:44;3.00;;;1.00;;
57331;SDS011;43164;50.908;18.092;2023-07-16T14:53:22;2.90;;;0.90;;
57331;SDS011;43164;50.908;18.092;2023-07-16T14:56:26;1.90;;;0.80;;
57331;SDS011;43164;50.908;18.092;2023-07-16T14:58:58;2.20;;;0.90;;
57331;SDS011;43164;50.908;18.092;2023-07-16T15:01:29;2.60;;;0.80;;
57331;SDS011;43164;50.908;18.092;2023-07-16T15:03:58;2.30;;;0.70;;
57331;SDS011;43164;50.908;18.092;2023-07-16T15:06:27;1.70;;;0.80;;
57331;SDS011;43164;50.908;18.092;2023-07-16T15:08:56;2.10;;;1.00;;
57331;SDS011;43164;50.908;18.092;2023-07-16T15:11:27;2.30;;;0.80;;
57331;SDS011;43164;50.908;18.092;2023-07-16T15:13:57;3.10;;;0.90;;
57331;SDS011;43164;50.908;18.092;2023-07-16T15:16:27;2.00;;;0.90;;
57331;SDS011;43164;50.908;18.092;2023-07-16T15:18:57;2.30;;;0.90;;
57331;SDS011;43164;50.908;18.092;2023-07-16T15:21:27;3.50;;;1.00;;
57331;SDS011;43164;50.908;18.092;2023-07-16T15:23:58;1.80;;;0.80;;
57331;SDS011;43164;50.908;18.092;2023-07-16T15:26:26;1.70;;;0.70;;
57331;SDS011;43164;50.908;18.092;2023-07-16T15:28:55;1.90;;;0.80;;
57331;SDS011;43164;50.908;18.092;2023-07-16T15:31:24;2.40;;;0.80;;
57331;SDS011;43164;50.908;18.092;2023-07-16T15:33:57;3.20;;;0.60;;
57331;SDS011;43164;50.908;18.092;2023-07-16T15:36:33;2.40;;;0.80;;
57331;SDS011;43164;50.908;18.092;2023-07-16T15:39:03;2.00;;;0.80;;
57331;SDS011;43164;50.908;18.092;2023-07-16T15:41:33;2.20;;;0.70;;
57331;SDS011;43164;50.908;18.092;2023-07-16T15:44:03;2.50;;;0.70;;
57331;SDS011;43164;50.908;18.092;2023-07-16T15:46:37;2.00;;;0.70;;
57331;SDS011;43164;50.908;18.092;2023-07-16T15:49:06;1.80;;;0.70;;
57331;SDS011;43164;50.908;18.092;2023-07-16T15:51:39;1.40;;;0.60;;
57331;SDS011;43164;50.908;18.092;2023-07-16T15:54:10;2.40;;;0.70;;
57331;SDS011;43164;50.908;18.092;2023-07-16T15:56:46;3.80;;;0.80;;
57331;SDS011;43164;50.908;18.092;2023-07-16T15:59:15;2.50;;;0.80;;
57331;SDS011;43164;50.908;18.092;2023-07-16T16:01:46;1.60;;;0.70;;
57331;SDS011;43164;50.908;18.092;2023-07-16T16:04:16;2.70;;;0.70;;
57331;SDS011;43164;50.908;18.092;2023-07-16T16:06:54;3.30;;;0.80;;
57331;SDS011;43164;50.908;18.092;2023-07-16T16:09:33;3.10;;;0.80;;
57331;SDS011;43164;50.908;18.092;2023-07-16T16:12:11;2.60;;;0.80;;
57331;SDS011;43164;50.908;18.092;2023-07-16T16:14:47;2.90;;;0.70;;